Moretown, VT (05660)

07:43 EDT le 01 novembre 2014 (GMT -0400)
Stevens Brook Road | Change Station
CLOSE
Current Station
Stations météorologiques personnelles
Location: Moretown, VT
Altitude: 680 ft
Stations météo à proximité

Alt. 680 ft 44.27 °N, 72.75 °W | Updated 13 minutes ago

Nuageux
Nuageux
33.2 ° F
Paraît 33 ° F
N
0.0
Vent Variable Vent de Nord
Gusts 0.0 mph

Aujourd'hui
Haut(e) -- | Bas -- ° F
--% Risque de précip.
Hier
Haut(e) -- | Bas -- ° F
Precip. -- pouce
7:27 AM 5:40 PM
Lune gibbeuse croissante, 65% visible
Pression 30.06 pouce
Visibilité 10.0 Miles terrestres
Nuages Nuages épars 5000 ft
Refroidissement éolien 33 ° F
Point de rosée 24 ° F
Humidité 70%
Précipitations 0.00 pouce
Profondeur de la couche neigeuse Non disponible.
UV 0 sur 12
Pollen .10 sur 12
Qualité de l'air Non disponible.
Flu Activity Non disponible.
METAR KMPV 011051Z AUTO 33003KT 10SM SCT050 00/M02 A3003 RMK AO2 SLP180 T00001022

More Conditions Fewer Conditions

Pression 30.06 pouce
Visibilité 10.0 Miles terrestres
Nuages Nuages épars 5000 ft
Refroidissement éolien 33 ° F
Point de rosée 24 ° F
Humidité 70%
Précipitations 0.00 pouce
Profondeur de la couche neigeuse Non disponible.
UV 0 sur 12
Pollen .10 sur 12
Qualité de l'air Non disponible.
Flu Activity Non disponible.
METAR KMPV 011051Z AUTO 33003KT 10SM SCT050 00/M02 A3003 RMK AO2 SLP180 T00001022

More Conditions Fewer Conditions

10-Day Weather Forecast

Almanac

Astronomie

Nov. 01, 2014 Lever Coucher
Temps réel
Crépuscule civil
Crépuscule nautique
Crépuscule astronomique
Lune
Durée de lumière visible
Longueur du jour
Tomorrow will be .
, % of the Moon is Illuminated

Extrêmes aujourd'hui

State Highs State Lows

Community

WunderPhotos

Upload Photos

1,766,903 Photos téléchargées !

WunderBlogs® & News

Nearby

Qualité de l'air

  Qualité de l'air Indice de la qualité de l'air Polluant
Not available.

Épaisseur de neige

Station Depth Altitude

Activité sismique

Ville Distance Mag. Time & Date
Minimum magnitude displayed is 2.5.

Températures des eaux côtières

Lieu Température

Stations météo à proximité